createdAt,value
2022-12-25T00:01:49.325Z,100.00
2022-12-25T00:04:17.130Z,95.82
2022-12-25T00:06:45.000Z,90.25
2022-12-25T00:09:14.145Z,90.82
2022-12-25T00:11:42.079Z,100.00
2022-12-25T00:14:09.983Z,99.56
2022-12-25T00:16:37.967Z,100.00
2022-12-25T00:19:05.832Z,100.00
2022-12-25T00:21:34.066Z,100.00
2022-12-25T00:24:03.609Z,100.00
2022-12-25T00:26:32.893Z,94.48
2022-12-25T00:29:00.955Z,92.71
2022-12-25T00:31:29.021Z,98.71
2022-12-25T00:33:56.976Z,100.00
2022-12-25T00:36:24.986Z,98.02
2022-12-25T00:38:52.860Z,100.00
2022-12-25T00:41:43.107Z,95.95
2022-12-25T00:44:13.849Z,97.96
2022-12-25T00:46:42.335Z,97.78
2022-12-25T00:49:10.492Z,100.00
2022-12-25T00:51:38.387Z,100.00
2022-12-25T00:54:06.247Z,100.00
2022-12-25T00:56:34.086Z,100.00
2022-12-25T00:59:01.984Z,100.00
2022-12-25T01:01:31.583Z,98.06
2022-12-25T01:04:00.340Z,100.00
2022-12-25T01:06:28.911Z,91.91
2022-12-25T01:09:14.727Z,95.88
2022-12-25T01:11:42.620Z,89.97
2022-12-25T01:14:10.783Z,90.11
2022-12-25T01:16:40.180Z,91.19
2022-12-25T01:19:10.396Z,100.00
2022-12-25T01:21:38.457Z,100.00
2022-12-25T01:24:06.960Z,90.05
2022-12-25T01:26:34.997Z,88.05
2022-12-25T01:29:03.550Z,93.70
2022-12-25T01:31:31.689Z,94.88
2022-12-25T01:34:00.915Z,98.85
2022-12-25T01:36:29.076Z,100.00
2022-12-25T01:38:56.964Z,100.00
2022-12-25T01:41:26.119Z,96.50
2022-12-25T01:44:04.427Z,91.44
2022-12-25T01:46:33.003Z,94.39
2022-12-25T01:49:04.558Z,88.31
2022-12-25T01:51:35.258Z,88.05
2022-12-25T01:54:06.945Z,87.91
2022-12-25T01:56:35.751Z,86.13
2022-12-25T01:59:04.087Z,88.29
2022-12-25T02:01:32.115Z,87.30
2022-12-25T02:04:07.027Z,89.80
2022-12-25T02:06:36.163Z,89.46
2022-12-25T02:09:04.329Z,98.92
2022-12-25T02:11:49.767Z,93.21
2022-12-25T02:14:17.696Z,87.01
2022-12-25T02:16:56.642Z,93.76
2022-12-25T02:19:38.514Z,89.44
2022-12-25T02:22:16.054Z,90.22
2022-12-25T02:24:54.402Z,89.24
2022-12-25T02:27:44.236Z,86.46
2022-12-25T02:30:12.765Z,84.27
2022-12-25T02:32:44.393Z,81.82
2022-12-25T02:35:15.415Z,88.16
2022-12-25T02:37:46.151Z,98.36
2022-12-25T02:40:17.565Z,96.23
2022-12-25T02:43:07.674Z,91.89
2022-12-25T02:45:56.503Z,90.84
2022-12-25T02:48:42.925Z,93.59
2022-12-25T02:51:31.131Z,87.34
2022-12-25T02:54:20.255Z,88.04
2022-12-25T02:57:06.670Z,91.00
2022-12-25T02:59:54.966Z,97.27
2022-12-25T03:02:42.414Z,92.78
2022-12-25T03:05:30.269Z,90.10
2022-12-25T03:07:59.980Z,90.26
2022-12-25T03:10:46.341Z,88.36
2022-12-25T03:13:17.506Z,91.70
2022-12-25T03:16:04.539Z,86.49
2022-12-25T03:18:34.004Z,87.53
2022-12-25T03:21:19.695Z,89.45
2022-12-25T03:24:08.374Z,89.84
2022-12-25T03:26:53.564Z,86.87
2022-12-25T03:29:35.465Z,99.99
2022-12-25T03:32:17.779Z,91.02
2022-12-25T03:35:08.400Z,92.68
2022-12-25T03:38:14.147Z,96.11
2022-12-25T03:41:19.489Z,86.70
2022-12-25T03:44:05.002Z,84.57
2022-12-25T03:46:50.709Z,84.39
2022-12-25T03:49:41.224Z,83.33
2022-12-25T03:52:28.292Z,83.15
2022-12-25T03:55:14.518Z,82.14
2022-12-25T03:57:59.943Z,86.90
2022-12-25T04:00:45.148Z,91.02
2022-12-25T04:03:30.583Z,96.18
2022-12-25T04:06:17.548Z,88.44
2022-12-25T04:09:05.824Z,85.63
2022-12-25T04:11:51.236Z,83.81
2022-12-25T04:14:36.549Z,87.47
2022-12-25T04:17:22.106Z,85.50
2022-12-25T04:20:07.469Z,88.76
2022-12-25T04:22:53.897Z,88.96
2022-12-25T04:25:39.406Z,86.04
2022-12-25T04:28:24.066Z,85.28
2022-12-25T04:31:09.568Z,92.48
2022-12-25T04:33:54.900Z,85.84
2022-12-25T04:36:23.877Z,79.70
2022-12-25T04:38:53.126Z,82.83
2022-12-25T04:41:21.110Z,77.33
2022-12-25T04:43:48.891Z,77.00
2022-12-25T04:46:16.765Z,76.56
2022-12-25T04:48:44.701Z,75.53
2022-12-25T04:51:14.522Z,74.97
2022-12-25T04:53:42.745Z,74.52
2022-12-25T04:56:11.929Z,74.39
2022-12-25T04:58:39.985Z,73.95
2022-12-25T05:01:07.797Z,74.25
2022-12-25T05:03:36.627Z,74.38
2022-12-25T05:06:05.915Z,74.69
2022-12-25T05:08:35.198Z,74.96
2022-12-25T05:11:06.919Z,73.76
2022-12-25T05:13:36.110Z,73.69
2022-12-25T05:16:08.844Z,73.73
2022-12-25T05:18:37.150Z,73.31
2022-12-25T05:21:05.435Z,77.25
2022-12-25T05:23:33.460Z,78.19
2022-12-25T05:26:05.054Z,78.86
2022-12-25T05:28:32.884Z,75.57
2022-12-25T05:31:02.253Z,74.13
2022-12-25T05:33:31.658Z,75.65
2022-12-25T05:35:59.749Z,76.80
2022-12-25T05:38:27.639Z,78.64
2022-12-25T05:40:56.675Z,77.26
2022-12-25T05:43:24.993Z,77.44
2022-12-25T05:45:52.922Z,76.65
2022-12-25T05:48:22.144Z,75.72
2022-12-25T05:50:49.934Z,75.73
2022-12-25T05:53:18.904Z,75.08
2022-12-25T05:55:46.704Z,74.43
2022-12-25T05:58:15.032Z,74.95
2022-12-25T06:00:44.894Z,75.06
2022-12-25T06:03:12.811Z,76.46
2022-12-25T06:05:42.098Z,76.04
2022-12-25T06:08:09.918Z,79.16
2022-12-25T06:10:37.753Z,80.70
2022-12-25T06:13:07.830Z,76.59
2022-12-25T06:15:35.675Z,79.28
2022-12-25T06:18:03.676Z,82.28
2022-12-25T06:20:31.538Z,79.32
2022-12-25T06:23:01.086Z,79.89
2022-12-25T06:25:29.056Z,81.18
2022-12-25T06:27:56.895Z,80.10
2022-12-25T06:30:24.704Z,78.06
2022-12-25T06:32:52.591Z,81.17
2022-12-25T06:35:20.447Z,78.91
2022-12-25T06:37:48.227Z,81.29
2022-12-25T06:40:17.781Z,79.51
2022-12-25T06:42:45.563Z,77.98
2022-12-25T06:45:13.649Z,79.37
2022-12-25T06:47:41.448Z,76.94
2022-12-25T06:50:09.502Z,78.90
2022-12-25T06:52:37.433Z,78.27
2022-12-25T06:55:05.674Z,79.87
2022-12-25T06:57:34.985Z,78.80
2022-12-25T07:00:03.531Z,76.67
2022-12-25T07:02:32.512Z,76.99
2022-12-25T07:05:01.376Z,75.37
2022-12-25T07:07:29.215Z,74.91
2022-12-25T07:09:57.125Z,76.24
2022-12-25T07:12:25.651Z,76.19
2022-12-25T07:14:56.615Z,77.87
2022-12-25T07:17:24.929Z,77.57
2022-12-25T07:19:52.769Z,77.15
2022-12-25T07:22:20.643Z,76.84
2022-12-25T07:24:48.442Z,75.59
2022-12-25T07:27:16.317Z,78.01
2022-12-25T07:29:44.092Z,77.54
2022-12-25T07:32:13.454Z,76.77
2022-12-25T07:34:41.273Z,77.16
2022-12-25T07:37:09.264Z,76.57
2022-12-25T07:39:37.187Z,77.28
2022-12-25T07:42:05.411Z,77.89
2022-12-25T07:44:33.187Z,78.48
2022-12-25T07:47:01.066Z,77.77
2022-12-25T07:49:30.214Z,77.78
2022-12-25T07:51:58.140Z,79.07
2022-12-25T07:54:25.961Z,79.42
2022-12-25T07:56:54.241Z,79.78
2022-12-25T07:59:22.318Z,80.88
2022-12-25T08:01:50.923Z,83.10
2022-12-25T08:04:19.186Z,81.26
2022-12-25T08:06:48.409Z,81.70
2022-12-25T08:09:16.267Z,80.82
2022-12-25T08:11:46.686Z,80.03
2022-12-25T08:14:15.151Z,79.85
2022-12-25T08:16:43.042Z,79.14
2022-12-25T08:19:11.121Z,79.74
2022-12-25T08:21:39.501Z,78.21
2022-12-25T08:24:09.274Z,79.25
2022-12-25T08:26:37.369Z,78.85
2022-12-25T08:29:05.206Z,79.50
2022-12-25T08:31:35.793Z,79.85
2022-12-25T08:34:06.978Z,80.21
2022-12-25T08:36:34.776Z,81.03
2022-12-25T08:39:03.579Z,81.41
2022-12-25T08:41:34.288Z,81.62
2022-12-25T08:44:02.142Z,81.19
2022-12-25T08:46:30.060Z,81.38
2022-12-25T08:48:58.110Z,82.02
2022-12-25T08:51:27.313Z,82.38
2022-12-25T08:54:00.253Z,86.49
2022-12-25T08:56:28.904Z,86.91
2022-12-25T08:58:58.113Z,89.47
2022-12-25T09:01:26.090Z,87.02
2022-12-25T09:03:53.994Z,84.97
2022-12-25T09:06:22.112Z,81.79
2022-12-25T09:08:50.169Z,81.20
2022-12-25T09:11:19.055Z,80.12
2022-12-25T09:13:46.982Z,83.06
2022-12-25T09:16:17.920Z,84.88
2022-12-25T09:18:45.909Z,87.74
2022-12-25T09:21:15.171Z,84.10
2022-12-25T09:23:43.447Z,85.14
2022-12-25T09:26:13.827Z,85.89
2022-12-25T09:28:48.529Z,86.24
2022-12-25T09:31:19.888Z,86.87
2022-12-25T09:33:48.492Z,89.19
2022-12-25T09:36:16.275Z,91.16
2022-12-25T09:38:44.176Z,84.67
2022-12-25T09:41:16.833Z,80.16
2022-12-25T09:43:48.841Z,82.02
2022-12-25T09:46:20.517Z,92.37
2022-12-25T09:48:54.818Z,99.17
2022-12-25T09:51:23.377Z,93.84
2022-12-25T09:53:55.615Z,85.54
2022-12-25T09:56:25.886Z,80.57
2022-12-25T09:58:54.175Z,80.95
2022-12-25T10:01:31.843Z,81.22
2022-12-25T10:04:22.565Z,85.24
2022-12-25T10:06:58.000Z,88.18
2022-12-25T10:09:38.961Z,84.56
2022-12-25T10:12:17.021Z,93.50
2022-12-25T10:15:04.050Z,92.76
2022-12-25T10:17:40.244Z,96.49
2022-12-25T10:20:14.721Z,89.83
2022-12-25T10:22:45.597Z,89.01
2022-12-25T10:25:17.874Z,86.79
2022-12-25T10:27:46.491Z,85.73
2022-12-25T10:30:16.822Z,91.53
2022-12-25T10:32:46.820Z,97.71
2022-12-25T10:35:16.197Z,87.77
2022-12-25T10:37:45.270Z,83.33
2022-12-25T10:40:25.400Z,83.86
2022-12-25T10:42:56.642Z,76.99
2022-12-25T10:45:24.442Z,78.97
2022-12-25T10:48:07.424Z,78.37
2022-12-25T10:50:45.872Z,68.63
2022-12-25T10:53:20.239Z,72.14
2022-12-25T10:56:02.311Z,73.98
2022-12-25T10:58:30.831Z,68.00
2022-12-25T11:01:01.570Z,72.17
2022-12-25T11:03:32.472Z,66.29
2022-12-25T11:06:01.278Z,65.87
2022-12-25T11:08:30.275Z,67.70
2022-12-25T11:10:59.720Z,68.45
2022-12-25T11:13:28.823Z,67.60
2022-12-25T11:16:06.033Z,67.61
2022-12-25T11:18:37.154Z,66.51
2022-12-25T11:21:17.008Z,66.86
2022-12-25T11:23:46.779Z,66.15
2022-12-25T11:26:15.480Z,84.00
2022-12-25T11:28:44.324Z,67.77
2022-12-25T11:31:15.525Z,64.47
2022-12-25T11:33:48.667Z,65.67
2022-12-25T11:36:21.416Z,66.68
2022-12-25T11:38:49.281Z,64.87
2022-12-25T11:41:20.717Z,67.93
2022-12-25T11:43:51.839Z,71.73
2022-12-25T11:46:22.513Z,75.87
2022-12-25T11:48:56.239Z,80.68
2022-12-25T11:51:26.671Z,76.02
2022-12-25T11:53:55.894Z,78.65
2022-12-25T11:56:26.343Z,76.10
2022-12-25T11:58:55.696Z,75.65
2022-12-25T12:01:30.834Z,78.05
2022-12-25T12:04:01.179Z,74.82
2022-12-25T12:06:33.747Z,75.48
2022-12-25T12:09:12.967Z,80.30
2022-12-25T12:11:44.926Z,77.79
2022-12-25T12:14:22.960Z,75.22
2022-12-25T12:16:51.091Z,77.00
2022-12-25T12:19:27.627Z,78.92
2022-12-25T12:21:57.418Z,76.06
2022-12-25T12:24:29.706Z,75.55
2022-12-25T12:27:02.373Z,76.42
2022-12-25T12:29:32.528Z,77.75
2022-12-25T12:32:02.642Z,77.76
2022-12-25T12:34:42.469Z,73.91
2022-12-25T12:37:22.876Z,75.19
2022-12-25T12:39:55.162Z,83.31
2022-12-25T12:42:25.941Z,80.30
2022-12-25T12:44:55.391Z,77.71
2022-12-25T12:47:33.488Z,85.17
2022-12-25T12:50:03.029Z,78.98
2022-12-25T12:52:35.769Z,77.65
2022-12-25T12:55:05.779Z,76.42
2022-12-25T12:57:39.230Z,77.94
2022-12-25T13:00:10.251Z,75.41
2022-12-25T13:03:16.361Z,75.32
2022-12-25T13:05:47.980Z,82.11
2022-12-25T13:08:27.579Z,82.39
2022-12-25T13:11:05.732Z,89.88
2022-12-25T13:13:37.396Z,77.26
2022-12-25T13:16:05.833Z,84.89
2022-12-25T13:18:34.783Z,82.86
2022-12-25T13:21:05.508Z,78.86
2022-12-25T13:23:35.176Z,77.96
2022-12-25T13:26:04.342Z,76.49
2022-12-25T13:28:33.810Z,74.19
2022-12-25T13:31:03.946Z,76.17
2022-12-25T13:33:31.907Z,74.82
2022-12-25T13:35:59.812Z,72.64
2022-12-25T13:38:29.941Z,75.22
2022-12-25T13:41:16.365Z,71.00
2022-12-25T13:43:44.833Z,71.86
2022-12-25T13:46:13.805Z,74.62
2022-12-25T13:48:41.793Z,74.80
2022-12-25T13:51:15.220Z,78.40
2022-12-25T13:53:44.802Z,84.66
2022-12-25T13:56:15.282Z,83.73
2022-12-25T13:58:43.455Z,86.83
2022-12-25T14:01:12.663Z,83.10
2022-12-25T14:03:42.217Z,84.01
2022-12-25T14:06:18.931Z,86.30
2022-12-25T14:08:48.786Z,82.70
2022-12-25T14:11:17.964Z,79.67
2022-12-25T14:13:47.897Z,88.77
2022-12-25T14:16:18.384Z,85.41
2022-12-25T14:18:58.062Z,86.75
2022-12-25T14:21:30.035Z,93.37
2022-12-25T14:23:59.608Z,87.03
2022-12-25T14:26:29.312Z,89.11
2022-12-25T14:29:03.039Z,87.30
2022-12-25T14:31:31.012Z,92.36
2022-12-25T14:33:59.891Z,88.45
2022-12-25T14:36:28.013Z,90.60
2022-12-25T14:39:01.438Z,88.32
2022-12-25T14:41:38.379Z,92.83
2022-12-25T14:44:08.197Z,84.29
2022-12-25T14:46:36.127Z,90.59
2022-12-25T14:49:05.717Z,89.47
2022-12-25T14:51:34.601Z,88.60
2022-12-25T14:54:05.639Z,87.52
2022-12-25T14:56:38.050Z,85.34
2022-12-25T14:59:07.658Z,85.27
2022-12-25T15:01:37.141Z,88.07
2022-12-25T15:04:07.404Z,84.69
2022-12-25T15:06:35.301Z,89.21
2022-12-25T15:09:07.020Z,91.72
2022-12-25T15:11:34.868Z,92.23
2022-12-25T15:14:02.725Z,87.81
2022-12-25T15:16:32.848Z,86.83
2022-12-25T15:19:01.929Z,90.64
2022-12-25T15:21:31.561Z,91.82
2022-12-25T15:24:00.353Z,91.15
2022-12-25T15:26:31.455Z,93.25
2022-12-25T15:28:59.602Z,90.47
2022-12-25T15:31:28.997Z,93.18
2022-12-25T15:33:58.846Z,98.28
2022-12-25T15:36:27.349Z,99.49
2022-12-25T15:38:55.986Z,100.00
2022-12-25T15:41:43.558Z,100.00
2022-12-25T15:44:13.656Z,99.25
2022-12-25T15:46:41.588Z,100.00
2022-12-25T15:49:10.230Z,100.00
2022-12-25T15:51:38.117Z,100.00
2022-12-25T15:54:06.273Z,100.00
2022-12-25T15:56:39.072Z,100.00
2022-12-25T15:59:06.913Z,100.00
2022-12-25T16:01:36.198Z,100.00
2022-12-25T16:04:04.353Z,100.00
2022-12-25T16:06:32.200Z,100.00
2022-12-25T16:09:00.026Z,100.00
2022-12-25T16:11:27.903Z,100.00
2022-12-25T16:13:55.678Z,98.04
2022-12-25T16:16:23.671Z,100.00
2022-12-25T16:18:52.865Z,100.00
2022-12-25T16:21:22.043Z,100.00
2022-12-25T16:23:49.992Z,100.00
2022-12-25T16:26:17.960Z,100.00
2022-12-25T16:28:46.353Z,100.00
2022-12-25T16:31:14.273Z,100.00
2022-12-25T16:33:42.127Z,100.00
2022-12-25T16:36:11.549Z,100.00
2022-12-25T16:38:39.333Z,100.00
2022-12-25T16:41:09.183Z,100.00
2022-12-25T16:43:37.251Z,100.00
2022-12-25T16:46:09.970Z,98.61
2022-12-25T16:48:37.993Z,100.00
2022-12-25T16:51:11.110Z,100.00
2022-12-25T16:53:39.218Z,100.00
2022-12-25T16:56:08.059Z,100.00
2022-12-25T16:58:36.319Z,100.00
2022-12-25T17:01:08.183Z,100.00
2022-12-25T17:03:36.331Z,100.00
2022-12-25T17:06:04.989Z,100.00
2022-12-25T17:08:34.162Z,100.00
2022-12-25T17:11:05.588Z,100.00
2022-12-25T17:13:33.588Z,100.00
2022-12-25T17:16:01.479Z,100.00
2022-12-25T17:18:29.350Z,100.00
2022-12-25T17:20:57.230Z,100.00
2022-12-25T17:23:25.262Z,100.00
2022-12-25T17:25:54.419Z,99.62
2022-12-25T17:28:22.260Z,100.00
2022-12-25T17:30:50.101Z,100.00
2022-12-25T17:33:17.910Z,100.00
2022-12-25T17:35:45.784Z,100.00
2022-12-25T17:38:14.001Z,100.00
2022-12-25T17:40:42.100Z,100.00
2022-12-25T17:43:17.180Z,100.00
2022-12-25T17:45:48.336Z,100.00
2022-12-25T17:48:16.174Z,100.00
2022-12-25T17:50:44.231Z,100.00
2022-12-25T17:53:12.541Z,100.00
2022-12-25T17:55:41.297Z,100.00
2022-12-25T17:58:11.013Z,100.00
2022-12-25T18:00:38.907Z,100.00
2022-12-25T18:03:11.457Z,100.00
2022-12-25T18:05:40.198Z,100.00
2022-12-25T18:08:07.960Z,100.00
2022-12-25T18:10:37.611Z,100.00
2022-12-25T18:13:05.531Z,100.00
2022-12-25T18:15:37.544Z,100.00
2022-12-25T18:18:06.102Z,100.00
2022-12-25T18:20:39.580Z,100.00
2022-12-25T18:23:08.218Z,100.00
2022-12-25T18:25:37.997Z,100.00
2022-12-25T18:28:06.185Z,100.00
2022-12-25T18:30:35.406Z,100.00
2022-12-25T18:33:03.180Z,100.00
2022-12-25T18:35:31.158Z,100.00
2022-12-25T18:37:58.973Z,100.00
2022-12-25T18:40:27.377Z,100.00
2022-12-25T18:43:02.695Z,100.00
2022-12-25T18:45:31.264Z,100.00
2022-12-25T18:48:03.139Z,100.00
2022-12-25T18:50:31.156Z,100.00
2022-12-25T18:52:58.940Z,100.00
2022-12-25T18:55:27.172Z,100.00
2022-12-25T18:57:55.136Z,100.00
2022-12-25T19:00:23.511Z,100.00
2022-12-25T19:02:52.392Z,100.00
2022-12-25T19:05:21.586Z,100.00
2022-12-25T19:07:49.507Z,100.00
2022-12-25T19:10:17.385Z,100.00
2022-12-25T19:12:45.656Z,100.00
2022-12-25T19:15:13.531Z,100.00
2022-12-25T19:17:41.449Z,100.00
2022-12-25T19:20:10.872Z,100.00
2022-12-25T19:22:40.069Z,100.00
2022-12-25T19:25:09.126Z,100.00
2022-12-25T19:27:37.000Z,100.00
2022-12-25T19:30:05.690Z,100.00
2022-12-25T19:32:33.507Z,100.00
2022-12-25T19:35:04.423Z,100.00
2022-12-25T19:37:32.703Z,100.00
2022-12-25T19:40:02.178Z,100.00
2022-12-25T19:42:30.075Z,100.00
2022-12-25T19:44:58.101Z,100.00
2022-12-25T19:47:25.988Z,100.00
2022-12-25T19:49:56.418Z,100.00
2022-12-25T19:52:27.436Z,100.00
2022-12-25T19:54:57.356Z,100.00
2022-12-25T19:57:26.569Z,100.00
2022-12-25T19:59:54.517Z,100.00
2022-12-25T20:02:22.486Z,100.00
2022-12-25T20:04:50.499Z,100.00
2022-12-25T20:07:18.324Z,100.00
2022-12-25T20:09:46.195Z,100.00
2022-12-25T20:12:16.234Z,100.00
2022-12-25T20:14:45.585Z,100.00
2022-12-25T20:17:15.979Z,100.00
2022-12-25T20:19:44.235Z,100.00
2022-12-25T20:22:12.187Z,100.00
2022-12-25T20:24:40.083Z,100.00
2022-12-25T20:27:07.921Z,100.00
2022-12-25T20:29:36.072Z,100.00
2022-12-25T20:32:05.939Z,100.00
2022-12-25T20:34:33.864Z,100.00
2022-12-25T20:37:01.751Z,100.00
2022-12-25T20:39:29.655Z,100.00
2022-12-25T20:41:57.573Z,100.00
2022-12-25T20:44:25.418Z,100.00
2022-12-25T20:46:54.873Z,100.00
2022-12-25T20:49:24.090Z,100.00
2022-12-25T20:51:59.793Z,100.00
2022-12-25T20:54:31.142Z,100.00
2022-12-25T20:56:59.108Z,100.00
2022-12-25T20:59:30.835Z,100.00
2022-12-25T21:02:01.752Z,100.00
2022-12-25T21:04:31.167Z,100.00
2022-12-25T21:07:00.264Z,100.00
2022-12-25T21:09:28.150Z,100.00
2022-12-25T21:11:56.177Z,100.00
2022-12-25T21:14:24.049Z,100.00
2022-12-25T21:16:52.132Z,100.00
2022-12-25T21:19:19.981Z,100.00
2022-12-25T21:21:54.730Z,100.00
2022-12-25T21:24:22.555Z,100.00
2022-12-25T21:26:50.431Z,100.00
2022-12-25T21:29:22.755Z,100.00
2022-12-25T21:32:08.805Z,100.00
2022-12-25T21:34:36.741Z,100.00
2022-12-25T21:37:05.912Z,100.00
2022-12-25T21:39:33.947Z,100.00
2022-12-25T21:42:04.313Z,100.00
2022-12-25T21:44:32.134Z,100.00
2022-12-25T21:46:59.961Z,100.00
2022-12-25T21:49:45.421Z,100.00
2022-12-25T21:52:14.731Z,100.00
2022-12-25T21:54:42.688Z,100.00
2022-12-25T21:57:10.567Z,100.00
2022-12-25T21:59:38.559Z,100.00
2022-12-25T22:02:11.214Z,100.00
2022-12-25T22:04:39.599Z,100.00
2022-12-25T22:07:18.290Z,100.00
2022-12-25T22:09:48.838Z,100.00
2022-12-25T22:12:35.646Z,100.00
2022-12-25T22:15:06.350Z,100.00
2022-12-25T22:17:53.504Z,100.00
2022-12-25T22:20:23.101Z,100.00
2022-12-25T22:22:51.431Z,100.00
2022-12-25T22:25:21.333Z,100.00
2022-12-25T22:27:49.941Z,100.00
2022-12-25T22:30:19.517Z,100.00
2022-12-25T22:32:48.020Z,100.00
2022-12-25T22:35:17.829Z,100.00
2022-12-25T22:37:46.222Z,100.00
2022-12-25T22:40:15.807Z,100.00
2022-12-25T22:42:45.455Z,100.00
2022-12-25T22:45:13.587Z,100.00
2022-12-25T22:47:41.942Z,100.00
2022-12-25T22:50:11.109Z,100.00
2022-12-25T22:52:39.282Z,100.00
2022-12-25T22:55:09.264Z,100.00
2022-12-25T22:57:37.315Z,100.00
2022-12-25T23:00:09.049Z,100.00
2022-12-25T23:02:37.432Z,100.00
2022-12-25T23:05:05.955Z,100.00
2022-12-25T23:07:33.792Z,100.00
2022-12-25T23:10:01.735Z,100.00
2022-12-25T23:12:47.137Z,100.00
2022-12-25T23:15:16.611Z,100.00
2022-12-25T23:18:01.955Z,100.00
2022-12-25T23:20:47.261Z,100.00
2022-12-25T23:23:33.932Z,100.00
2022-12-25T23:26:11.404Z,100.00
2022-12-25T23:28:59.505Z,100.00
2022-12-25T23:31:30.939Z,100.00
2022-12-25T23:33:59.452Z,100.00
2022-12-25T23:36:28.184Z,100.00
2022-12-25T23:38:56.070Z,100.00
2022-12-25T23:41:25.560Z,100.00
2022-12-25T23:43:53.413Z,100.00
2022-12-25T23:46:21.383Z,100.00
2022-12-25T23:48:50.647Z,100.00
2022-12-25T23:51:18.607Z,100.00
2022-12-25T23:53:46.547Z,100.00
2022-12-25T23:56:14.758Z,100.00
2022-12-25T23:58:45.094Z,100.00
